createdAt,value
2023-05-05T00:01:35.695Z,3.50
2023-05-05T00:04:02.575Z,3.60
2023-05-05T00:06:29.438Z,4.00
2023-05-05T00:08:56.445Z,4.22
2023-05-05T00:11:23.704Z,3.45
2023-05-05T00:13:51.726Z,3.85
2023-05-05T00:16:18.733Z,4.00
2023-05-05T00:18:45.590Z,3.85
2023-05-05T00:21:12.402Z,3.40
2023-05-05T00:23:39.191Z,3.83
2023-05-05T00:26:06.679Z,4.15
2023-05-05T00:28:33.519Z,3.30
2023-05-05T00:31:00.724Z,4.10
2023-05-05T00:33:27.536Z,3.67
2023-05-05T00:35:54.302Z,3.47
2023-05-05T00:38:21.127Z,3.40
2023-05-05T00:40:48.003Z,3.50
2023-05-05T00:43:14.887Z,3.58
2023-05-05T00:45:44.462Z,3.58
2023-05-05T00:48:11.800Z,3.47
2023-05-05T00:50:38.914Z,3.80
2023-05-05T00:53:07.099Z,4.03
2023-05-05T00:55:36.934Z,4.20
2023-05-05T00:58:04.584Z,4.00
2023-05-05T01:00:31.662Z,3.50
2023-05-05T01:03:00.030Z,4.05
2023-05-05T01:05:35.240Z,4.47
2023-05-05T01:08:29.190Z,3.60
2023-05-05T01:11:03.318Z,4.13
2023-05-05T01:13:38.924Z,3.65
2023-05-05T01:16:27.962Z,5.45
2023-05-05T01:19:33.953Z,3.95
2023-05-05T01:22:04.109Z,4.20
2023-05-05T01:24:57.180Z,3.50
2023-05-05T01:27:55.786Z,4.45
2023-05-05T01:30:57.935Z,4.00
2023-05-05T01:33:27.802Z,4.15
2023-05-05T01:36:00.709Z,4.30
2023-05-05T01:38:41.065Z,4.05
2023-05-05T01:41:07.827Z,3.67
2023-05-05T01:43:36.904Z,4.38
2023-05-05T01:46:06.627Z,3.75
2023-05-05T01:48:34.084Z,4.38
2023-05-05T01:51:03.241Z,3.95
2023-05-05T01:53:31.647Z,4.30
2023-05-05T01:55:59.272Z,4.38
2023-05-05T01:58:29.264Z,4.07
2023-05-05T02:00:58.106Z,4.05
2023-05-05T02:03:27.768Z,4.00
2023-05-05T02:05:57.482Z,4.10
2023-05-05T02:08:26.197Z,4.53
2023-05-05T02:10:54.809Z,3.42
2023-05-05T02:13:23.614Z,3.80
2023-05-05T02:15:52.306Z,4.60
2023-05-05T02:18:20.233Z,4.55
2023-05-05T02:20:47.616Z,4.15
2023-05-05T02:23:14.562Z,3.58
2023-05-05T02:25:45.551Z,3.65
2023-05-05T02:28:40.877Z,4.07
2023-05-05T02:31:09.062Z,4.07
2023-05-05T02:33:38.315Z,4.13
2023-05-05T02:36:27.975Z,4.03
2023-05-05T02:39:02.470Z,3.83
2023-05-05T02:41:36.376Z,4.43
2023-05-05T02:44:12.808Z,4.20
2023-05-05T02:46:40.014Z,3.70
2023-05-05T02:49:07.013Z,4.32
2023-05-05T02:51:34.539Z,3.92
2023-05-05T02:54:06.430Z,4.20
2023-05-05T02:56:43.206Z,7.32
2023-05-05T02:59:10.244Z,3.92
2023-05-05T03:01:40.101Z,4.13
2023-05-05T03:04:15.571Z,4.07
2023-05-05T03:06:50.176Z,3.92
2023-05-05T03:09:52.100Z,4.40
2023-05-05T03:12:22.648Z,3.90
2023-05-05T03:15:07.064Z,4.05
2023-05-05T03:17:36.945Z,3.70
2023-05-05T03:20:08.492Z,4.07
2023-05-05T03:22:39.272Z,3.92
2023-05-05T03:25:11.331Z,4.82
2023-05-05T03:27:38.224Z,3.88
2023-05-05T03:30:07.122Z,3.67
2023-05-05T03:32:37.876Z,3.50
2023-05-05T03:35:05.097Z,4.80
2023-05-05T03:37:34.043Z,5.80
2023-05-05T03:40:00.899Z,4.00
2023-05-05T03:42:28.268Z,4.15
2023-05-05T03:44:55.407Z,3.92
2023-05-05T03:47:24.936Z,3.35
2023-05-05T03:49:53.531Z,3.90
2023-05-05T03:52:20.656Z,3.65
2023-05-05T03:54:47.702Z,3.97
2023-05-05T03:57:14.612Z,4.03
2023-05-05T03:59:41.451Z,4.05
2023-05-05T04:02:09.201Z,3.55
2023-05-05T04:04:36.346Z,3.85
2023-05-05T04:07:03.271Z,3.55
2023-05-05T04:09:30.155Z,3.50
2023-05-05T04:11:57.519Z,4.10
2023-05-05T04:14:24.944Z,3.83
2023-05-05T04:16:52.355Z,4.45
2023-05-05T04:19:19.706Z,4.03
2023-05-05T04:21:47.168Z,4.03
2023-05-05T04:24:14.069Z,4.40
2023-05-05T04:26:41.751Z,4.47
2023-05-05T04:29:09.958Z,4.20
2023-05-05T04:31:37.171Z,4.13
2023-05-05T04:34:04.200Z,4.03
2023-05-05T04:36:31.696Z,3.80
2023-05-05T04:38:59.422Z,3.80
2023-05-05T04:41:28.199Z,4.10
2023-05-05T04:43:57.026Z,4.18
2023-05-05T04:46:25.302Z,4.57
2023-05-05T04:48:52.725Z,3.90
2023-05-05T04:51:19.585Z,4.88
2023-05-05T04:53:46.734Z,4.47
2023-05-05T04:56:13.551Z,3.45
2023-05-05T04:58:40.359Z,3.95
2023-05-05T05:01:07.161Z,3.88
2023-05-05T05:03:34.105Z,3.90
2023-05-05T05:06:01.018Z,5.63
2023-05-05T05:08:28.488Z,4.88
2023-05-05T05:10:55.320Z,4.43
2023-05-05T05:13:22.886Z,4.30
2023-05-05T05:15:50.907Z,3.95
2023-05-05T05:18:18.344Z,3.88
2023-05-05T05:20:46.306Z,4.50
2023-05-05T05:23:13.944Z,4.70
2023-05-05T05:25:43.752Z,3.47
2023-05-05T05:28:12.007Z,4.43
2023-05-05T05:30:45.123Z,6.85
2023-05-05T05:33:12.438Z,5.22
2023-05-05T05:35:40.086Z,6.80
2023-05-05T05:38:07.510Z,7.05
2023-05-05T05:40:34.372Z,7.07
2023-05-05T05:43:03.040Z,7.40
2023-05-05T05:45:30.752Z,7.75
2023-05-05T05:47:57.634Z,5.88
2023-05-05T05:50:27.314Z,6.57
2023-05-05T05:52:55.188Z,7.68
2023-05-05T05:55:22.630Z,7.13
2023-05-05T05:57:49.494Z,7.57
2023-05-05T06:00:16.639Z,9.02
2023-05-05T06:02:51.605Z,8.38
2023-05-05T06:05:21.958Z,7.93
2023-05-05T06:07:50.714Z,7.35
2023-05-05T06:12:53.658Z,8.45
2023-05-05T06:15:20.581Z,8.05
2023-05-05T06:17:47.827Z,8.30
2023-05-05T06:20:14.769Z,9.40
2023-05-05T06:22:41.573Z,8.38
2023-05-05T06:25:08.808Z,7.00
2023-05-05T06:27:36.509Z,8.18
2023-05-05T06:30:03.461Z,8.90
2023-05-05T06:32:30.280Z,8.13
2023-05-05T06:34:57.098Z,9.15
2023-05-05T06:37:23.911Z,9.75
2023-05-05T06:39:50.945Z,8.05
2023-05-05T06:42:17.782Z,7.45
2023-05-05T06:44:45.880Z,9.30
2023-05-05T06:47:12.688Z,9.95
2023-05-05T06:49:39.475Z,11.45
2023-05-05T06:52:08.415Z,7.95
2023-05-05T06:54:35.209Z,9.50
2023-05-05T06:57:02.052Z,9.13
2023-05-05T06:59:28.954Z,8.20
2023-05-05T07:01:56.581Z,9.60
2023-05-05T07:04:23.620Z,9.32
2023-05-05T07:06:50.547Z,8.27
2023-05-05T07:09:17.712Z,8.68
2023-05-05T07:11:44.597Z,9.88
2023-05-05T07:14:11.421Z,7.80
2023-05-05T07:16:39.329Z,9.10
2023-05-05T07:19:06.532Z,7.70
2023-05-05T07:21:36.834Z,8.52
2023-05-05T07:24:04.295Z,7.82
2023-05-05T07:26:31.428Z,7.65
2023-05-05T07:28:59.148Z,7.78
2023-05-05T07:31:26.863Z,7.93
2023-05-05T07:33:53.927Z,7.07
2023-05-05T07:36:20.970Z,7.00
2023-05-05T07:38:47.971Z,7.72
2023-05-05T07:41:14.794Z,7.10
2023-05-05T07:43:44.253Z,7.78
2023-05-05T07:48:41.651Z,7.60
2023-05-05T07:51:09.590Z,8.25
2023-05-05T07:53:37.109Z,7.13
2023-05-05T07:56:04.348Z,6.80
2023-05-05T07:58:31.328Z,7.15
2023-05-05T08:00:58.174Z,8.50
2023-05-05T08:03:25.311Z,8.52
2023-05-05T08:05:54.875Z,8.65
2023-05-05T08:08:25.149Z,7.72
2023-05-05T08:10:53.459Z,8.07
2023-05-05T08:13:20.613Z,8.60
2023-05-05T08:15:47.809Z,8.95
2023-05-05T08:18:15.047Z,8.30
2023-05-05T08:20:42.036Z,8.18
2023-05-05T08:23:08.990Z,7.97
2023-05-05T08:25:36.253Z,7.10
2023-05-05T08:28:03.401Z,6.85
2023-05-05T08:30:30.306Z,9.07
2023-05-05T08:32:57.421Z,8.27
2023-05-05T08:35:24.468Z,7.72
2023-05-05T08:37:51.993Z,7.03
2023-05-05T08:40:21.412Z,7.43
2023-05-05T08:42:48.355Z,5.78
2023-05-05T08:45:16.091Z,6.13
2023-05-05T08:47:43.676Z,7.65
2023-05-05T08:50:11.568Z,9.30
2023-05-05T08:52:40.781Z,8.80
2023-05-05T08:55:28.599Z,7.50
2023-05-05T08:57:57.494Z,7.07
2023-05-05T09:00:24.860Z,8.27
2023-05-05T09:02:52.736Z,7.78
2023-05-05T09:05:19.638Z,7.20
2023-05-05T09:07:47.494Z,6.90
2023-05-05T09:10:14.535Z,9.32
2023-05-05T09:12:41.576Z,8.15
2023-05-05T09:15:13.635Z,8.75
2023-05-05T09:17:41.871Z,7.07
2023-05-05T09:20:11.050Z,6.63
2023-05-05T09:22:38.821Z,7.38
2023-05-05T09:25:08.851Z,8.35
2023-05-05T09:27:41.393Z,6.78
2023-05-05T09:30:09.969Z,8.13
2023-05-05T09:33:03.549Z,7.45
2023-05-05T09:35:48.236Z,8.10
2023-05-05T09:38:15.069Z,6.70
2023-05-05T09:40:53.027Z,7.50
2023-05-05T09:43:24.007Z,7.78
2023-05-05T09:45:51.624Z,7.85
2023-05-05T09:48:29.557Z,8.52
2023-05-05T09:50:58.143Z,8.27
2023-05-05T09:53:26.667Z,7.25
2023-05-05T09:55:57.769Z,8.45
2023-05-05T09:58:29.580Z,8.13
2023-05-05T10:00:57.894Z,8.00
2023-05-05T10:03:25.727Z,8.13
2023-05-05T10:05:54.176Z,7.95
2023-05-05T10:08:23.704Z,8.13
2023-05-05T10:10:52.243Z,7.95
2023-05-05T10:13:21.624Z,9.43
2023-05-05T10:15:51.808Z,8.88
2023-05-05T10:18:27.610Z,9.00
2023-05-05T10:23:44.977Z,8.98
2023-05-05T10:26:14.759Z,8.82
2023-05-05T10:28:50.612Z,8.75
2023-05-05T10:34:02.861Z,9.40
2023-05-05T10:36:30.780Z,9.40
2023-05-05T10:39:00.274Z,10.23
2023-05-05T10:41:27.298Z,8.48
2023-05-05T10:44:01.381Z,9.75
2023-05-05T10:46:29.931Z,9.55
2023-05-05T10:49:38.423Z,9.57
2023-05-05T10:52:21.066Z,9.73
2023-05-05T10:54:57.746Z,9.40
2023-05-05T10:57:27.251Z,9.95
2023-05-05T11:02:28.686Z,10.18
2023-05-05T11:05:21.625Z,9.93
2023-05-05T11:07:50.449Z,10.00
2023-05-05T11:10:23.897Z,10.35
2023-05-05T11:13:00.288Z,10.50
2023-05-05T11:15:30.538Z,10.50
2023-05-05T11:17:58.781Z,10.20
2023-05-05T11:20:40.694Z,9.85
2023-05-05T11:25:38.149Z,11.15
2023-05-05T11:28:12.216Z,10.70
2023-05-05T11:30:58.706Z,10.15
2023-05-05T11:33:26.684Z,11.13
2023-05-05T11:36:06.750Z,10.40
2023-05-05T11:39:09.487Z,10.20
2023-05-05T11:41:45.836Z,10.88
2023-05-05T11:44:16.757Z,10.57
2023-05-05T11:46:52.820Z,10.18
2023-05-05T11:49:39.351Z,10.85
2023-05-05T11:52:15.173Z,10.20
2023-05-05T11:54:48.242Z,10.82
2023-05-05T11:57:21.760Z,10.55
2023-05-05T12:00:07.736Z,10.80
2023-05-05T12:02:35.359Z,11.48
2023-05-05T12:05:02.940Z,11.13
2023-05-05T12:07:32.470Z,11.07
2023-05-05T12:09:59.673Z,10.88
2023-05-05T12:12:39.518Z,10.63
2023-05-05T12:15:07.818Z,10.80
2023-05-05T12:17:40.644Z,10.63
2023-05-05T12:20:09.314Z,11.57
2023-05-05T12:22:36.486Z,11.55
2023-05-05T12:25:05.996Z,11.50
2023-05-05T12:27:33.005Z,11.90
2023-05-05T12:30:12.754Z,12.43
2023-05-05T12:32:40.204Z,12.10
2023-05-05T12:35:08.244Z,11.55
2023-05-05T12:37:36.090Z,11.93
2023-05-05T12:40:04.012Z,12.73
2023-05-05T12:42:30.917Z,11.40
2023-05-05T12:44:57.846Z,11.43
2023-05-05T12:47:32.392Z,12.40
2023-05-05T12:50:00.433Z,11.60
2023-05-05T12:52:44.737Z,12.13
2023-05-05T12:55:12.126Z,12.35
2023-05-05T12:57:39.872Z,12.73
2023-05-05T13:00:17.916Z,12.50
2023-05-05T13:02:45.058Z,12.32
2023-05-05T13:05:12.303Z,12.38
2023-05-05T13:07:50.971Z,12.13
2023-05-05T13:10:18.015Z,11.73
2023-05-05T13:12:44.966Z,12.40
2023-05-05T13:15:12.325Z,12.65
2023-05-05T13:17:39.295Z,12.32
2023-05-05T13:20:08.225Z,12.95
2023-05-05T13:22:35.131Z,12.73
2023-05-05T13:25:02.064Z,12.52
2023-05-05T13:27:28.955Z,11.90
2023-05-05T13:29:56.058Z,12.73
2023-05-05T13:32:23.127Z,12.43
2023-05-05T13:34:49.984Z,12.48
2023-05-05T13:37:16.860Z,12.38
2023-05-05T13:39:43.967Z,13.10
2023-05-05T13:42:11.016Z,12.77
2023-05-05T13:44:37.779Z,12.80
2023-05-05T13:47:04.868Z,13.50
2023-05-05T13:49:31.676Z,13.70
2023-05-05T13:51:58.810Z,14.15
2023-05-05T13:54:26.289Z,15.30
2023-05-05T13:56:53.144Z,15.23
2023-05-05T13:59:19.963Z,15.98
2023-05-05T14:01:46.755Z,17.25
2023-05-05T14:04:13.689Z,16.52
2023-05-05T14:06:40.550Z,17.15
2023-05-05T14:09:08.133Z,15.27
2023-05-05T14:11:35.094Z,16.83
2023-05-05T14:14:02.020Z,19.02
2023-05-05T14:16:28.988Z,20.27
2023-05-05T14:18:55.840Z,21.27
2023-05-05T14:21:22.658Z,20.83
2023-05-05T14:23:49.446Z,21.88
2023-05-05T14:26:16.317Z,21.50
2023-05-05T14:28:43.665Z,22.17
2023-05-05T14:31:11.381Z,23.02
2023-05-05T14:33:38.316Z,23.70
2023-05-05T14:36:05.566Z,24.67
2023-05-05T14:38:32.476Z,26.00
2023-05-05T14:40:59.692Z,25.63
2023-05-05T14:43:26.528Z,18.60
2023-05-05T14:45:53.467Z,9.30
2023-05-05T14:48:22.673Z,9.93
2023-05-05T14:50:50.120Z,6.65
2023-05-05T14:53:19.144Z,5.13
2023-05-05T14:55:46.134Z,3.88
2023-05-05T14:58:12.917Z,5.13
2023-05-05T15:00:39.799Z,3.80
2023-05-05T15:03:06.802Z,4.53
2023-05-05T15:05:33.735Z,3.80
2023-05-05T15:08:00.601Z,3.67
2023-05-05T15:10:27.817Z,3.60
2023-05-05T15:12:54.737Z,2.88
2023-05-05T15:15:21.604Z,2.97
2023-05-05T15:17:48.707Z,2.72
2023-05-05T15:20:15.674Z,2.90
2023-05-05T15:22:42.475Z,2.72
2023-05-05T15:25:12.580Z,3.28
2023-05-05T15:27:40.057Z,2.85
2023-05-05T15:30:08.003Z,2.08
2023-05-05T15:32:34.944Z,2.72
2023-05-05T15:35:01.936Z,2.10
2023-05-05T15:37:29.173Z,2.47
2023-05-05T15:39:56.476Z,2.70
2023-05-05T15:42:23.722Z,3.75
2023-05-05T15:44:51.476Z,2.53
2023-05-05T15:47:18.585Z,2.55
2023-05-05T15:49:45.389Z,2.90
2023-05-05T15:52:13.007Z,2.80
2023-05-05T15:54:39.903Z,2.80
2023-05-05T15:57:06.973Z,2.53
2023-05-05T15:59:33.955Z,2.75
2023-05-05T16:02:00.913Z,2.63
2023-05-05T16:04:27.758Z,2.75
2023-05-05T16:06:55.615Z,2.95
2023-05-05T16:09:22.598Z,3.28
2023-05-05T16:11:49.514Z,3.13
2023-05-05T16:14:16.389Z,3.78
2023-05-05T16:16:44.120Z,3.45
2023-05-05T16:19:10.999Z,4.22
2023-05-05T16:21:38.031Z,3.90
2023-05-05T16:24:05.077Z,4.95
2023-05-05T16:26:32.059Z,4.80
2023-05-05T16:28:58.902Z,5.50
2023-05-05T16:31:26.016Z,4.13
2023-05-05T16:33:52.922Z,4.95
2023-05-05T16:36:20.955Z,4.47
2023-05-05T16:38:48.023Z,4.45
2023-05-05T16:41:14.868Z,4.10
2023-05-05T16:43:41.786Z,3.97
2023-05-05T16:46:08.694Z,4.05
2023-05-05T16:48:35.615Z,4.53
2023-05-05T16:51:02.527Z,4.38
2023-05-05T16:53:29.432Z,4.18
2023-05-05T16:55:56.293Z,4.38
2023-05-05T16:58:23.404Z,4.75
2023-05-05T17:00:51.110Z,4.85
2023-05-05T17:03:21.723Z,4.47
2023-05-05T17:05:50.228Z,5.13
2023-05-05T17:08:17.542Z,5.05
2023-05-05T17:10:45.762Z,4.55
2023-05-05T17:13:13.960Z,5.00
2023-05-05T17:15:41.837Z,4.63
2023-05-05T17:18:08.939Z,4.50
2023-05-05T17:20:36.577Z,4.30
2023-05-05T17:23:03.563Z,3.30
2023-05-05T17:25:30.692Z,3.97
2023-05-05T17:27:57.704Z,4.07
2023-05-05T17:30:24.663Z,5.10
2023-05-05T17:32:51.567Z,5.57
2023-05-05T17:35:18.740Z,4.75
2023-05-05T17:37:45.832Z,5.07
2023-05-05T17:40:12.877Z,5.45
2023-05-05T17:42:39.789Z,6.95
2023-05-05T17:45:08.094Z,5.45
2023-05-05T17:47:35.283Z,7.07
2023-05-05T17:50:02.387Z,6.60
2023-05-05T17:52:29.279Z,5.93
2023-05-05T17:54:56.109Z,6.28
2023-05-05T17:57:23.157Z,5.15
2023-05-05T17:59:50.569Z,5.82
2023-05-05T18:02:18.264Z,5.70
2023-05-05T18:04:46.061Z,5.32
2023-05-05T18:07:14.890Z,6.13
2023-05-05T18:09:42.499Z,5.10
2023-05-05T18:12:09.556Z,5.38
2023-05-05T18:14:36.498Z,4.72
2023-05-05T18:17:03.587Z,4.85
2023-05-05T18:19:30.762Z,4.00
2023-05-05T18:22:00.667Z,4.95
2023-05-05T18:24:28.381Z,4.25
2023-05-05T18:26:55.256Z,4.63
2023-05-05T18:29:22.235Z,5.05
2023-05-05T18:31:53.218Z,6.57
2023-05-05T18:34:21.134Z,6.45
2023-05-05T18:36:48.471Z,7.32
2023-05-05T18:39:15.462Z,7.75
2023-05-05T18:41:42.396Z,7.70
2023-05-05T18:44:10.173Z,8.70
2023-05-05T18:46:37.197Z,7.93
2023-05-05T18:49:04.132Z,8.68
2023-05-05T18:51:30.966Z,7.80
2023-05-05T18:53:58.178Z,7.90
2023-05-05T18:56:25.046Z,7.18
2023-05-05T18:58:51.968Z,7.07
2023-05-05T19:01:18.962Z,6.88
2023-05-05T19:03:49.789Z,7.78
2023-05-05T19:06:17.946Z,8.48
2023-05-05T19:08:45.941Z,9.23
2023-05-05T19:11:14.958Z,28.52
2023-05-05T19:13:42.425Z,10.68
2023-05-05T19:16:11.365Z,12.05
2023-05-05T19:18:38.809Z,8.70
2023-05-05T19:21:06.033Z,9.27
2023-05-05T19:23:33.553Z,9.05
2023-05-05T19:26:00.449Z,9.48
2023-05-05T19:28:27.283Z,9.80
2023-05-05T19:30:54.180Z,8.38
2023-05-05T19:33:21.369Z,7.90
2023-05-05T19:35:48.428Z,7.28
2023-05-05T19:38:15.872Z,7.22
2023-05-05T19:40:43.559Z,8.10
2023-05-05T19:43:10.528Z,7.82
2023-05-05T19:45:37.527Z,7.43
2023-05-05T19:48:04.693Z,8.68
2023-05-05T19:50:31.867Z,7.93
2023-05-05T19:52:58.750Z,8.27
2023-05-05T19:55:25.874Z,8.48
2023-05-05T19:57:52.820Z,8.52
2023-05-05T20:00:19.998Z,7.88
2023-05-05T20:02:48.736Z,8.15
2023-05-05T20:05:17.819Z,8.77
2023-05-05T20:07:46.533Z,9.13
2023-05-05T20:10:13.838Z,8.80
2023-05-05T20:12:48.175Z,8.65
2023-05-05T20:15:20.311Z,6.82
2023-05-05T20:17:48.074Z,6.95
2023-05-05T20:20:20.884Z,6.50
2023-05-05T20:22:48.862Z,6.65
2023-05-05T20:25:18.476Z,6.63
2023-05-05T20:27:45.999Z,6.70
2023-05-05T20:30:13.335Z,7.00
2023-05-05T20:32:40.703Z,7.53
2023-05-05T20:35:08.187Z,6.25
2023-05-05T20:37:35.040Z,7.03
2023-05-05T20:40:02.015Z,7.35
2023-05-05T20:42:29.957Z,7.55
2023-05-05T20:44:57.100Z,9.02
2023-05-05T20:47:24.633Z,8.88
2023-05-05T20:49:52.711Z,8.32
2023-05-05T20:52:19.787Z,9.07
2023-05-05T20:54:46.585Z,6.65
2023-05-05T20:57:13.482Z,7.30
2023-05-05T20:59:40.540Z,7.53
2023-05-05T21:02:07.956Z,8.43
2023-05-05T21:04:34.832Z,6.68
2023-05-05T21:07:01.688Z,7.05
2023-05-05T21:09:28.825Z,6.47
2023-05-05T21:11:55.803Z,7.07
2023-05-05T21:14:23.367Z,6.75
2023-05-05T21:16:50.343Z,7.07
2023-05-05T21:19:17.231Z,6.78
2023-05-05T21:21:44.438Z,7.07
2023-05-05T21:24:13.147Z,7.13
2023-05-05T21:26:46.848Z,7.05
2023-05-05T21:29:13.707Z,6.75
2023-05-05T21:31:40.659Z,7.88
2023-05-05T21:34:07.472Z,6.50
2023-05-05T21:36:34.544Z,6.22
2023-05-05T21:39:01.445Z,6.03
2023-05-05T21:41:28.381Z,6.22
2023-05-05T21:43:55.330Z,6.38
2023-05-05T21:46:22.312Z,6.70
2023-05-05T21:48:49.153Z,6.20
2023-05-05T21:51:16.024Z,6.40
2023-05-05T21:53:42.991Z,6.85
2023-05-05T21:56:09.795Z,7.38
2023-05-05T21:58:36.598Z,8.02
2023-05-05T22:01:03.621Z,7.80
2023-05-05T22:03:30.590Z,7.32
2023-05-05T22:05:57.457Z,6.95
2023-05-05T22:08:24.327Z,7.20
2023-05-05T22:10:51.700Z,7.18
2023-05-05T22:13:18.579Z,8.07
2023-05-05T22:15:47.470Z,7.10
2023-05-05T22:18:15.286Z,8.13
2023-05-05T22:20:42.444Z,7.75
2023-05-05T22:23:09.357Z,7.65
2023-05-05T22:25:36.172Z,7.03
2023-05-05T22:28:03.017Z,7.70
2023-05-05T22:30:29.808Z,7.43
2023-05-05T22:32:56.806Z,6.88
2023-05-05T22:35:23.681Z,7.03
2023-05-05T22:37:50.502Z,7.80
2023-05-05T22:40:17.476Z,8.45
2023-05-05T22:42:44.571Z,8.00
2023-05-05T22:45:12.016Z,8.00
2023-05-05T22:47:39.042Z,7.75
2023-05-05T22:50:06.491Z,7.78
2023-05-05T22:52:33.362Z,7.78
2023-05-05T22:55:00.183Z,7.82
2023-05-05T22:57:26.951Z,9.23
2023-05-05T22:59:53.750Z,8.48
2023-05-05T23:02:20.566Z,8.95
2023-05-05T23:04:47.608Z,9.68
2023-05-05T23:07:14.536Z,8.63
2023-05-05T23:09:41.522Z,8.50
2023-05-05T23:12:08.299Z,7.88
2023-05-05T23:14:35.785Z,9.10
2023-05-05T23:17:02.741Z,8.80
2023-05-05T23:19:32.255Z,9.75
2023-05-05T23:21:59.929Z,9.90
2023-05-05T23:24:27.749Z,10.45
2023-05-05T23:26:56.364Z,9.18
2023-05-05T23:29:23.124Z,8.73
2023-05-05T23:31:50.012Z,8.63
2023-05-05T23:34:17.096Z,7.82
2023-05-05T23:36:44.019Z,9.35
2023-05-05T23:39:11.222Z,9.77
2023-05-05T23:41:37.992Z,8.55
2023-05-05T23:44:04.857Z,8.75
2023-05-05T23:46:31.776Z,8.95
2023-05-05T23:48:58.589Z,8.30
2023-05-05T23:51:25.412Z,9.60
2023-05-05T23:53:52.235Z,8.85
2023-05-05T23:56:19.121Z,8.27
2023-05-05T23:58:46.041Z,9.52
